Time;durP1;ratioP1;P1;durP2;ratioP2;P2;SDS_P1;SDS_P2;PMS_P1;PMS_P2;Temp;Humidity;BMP_temperature;BMP_pressure;BME280_temperature;BME280_humidity;BME280_pressure;Samples;Min_cycle;Max_cycle;Signal;HPM_P1;HPM_P2
2023/02/18 00:01:16;;;;;;;1.47;0.90;;;;;;;14.89;56.31;98356.50;4992135;28;20468;-71
2023/02/18 00:03:42;;;;;;;1.00;0.90;;;;;;;14.74;56.31;98347.50;4991513;28;20168;-71
2023/02/18 00:06:12;;;;;;;1.13;1.03;;;;;;;14.88;56.15;98346.13;5000831;28;20465;-70
2023/02/18 00:08:37;;;;;;;1.20;1.10;;;;;;;14.98;55.78;98340.75;4999591;28;20212;-71
2023/02/18 00:11:06;;;;;;;1.77;1.00;;;;;;;15.03;55.38;98338.47;4991055;28;20431;-70
2023/02/18 00:13:32;;;;;;;1.20;1.10;;;;;;;15.08;55.37;98352.06;5005879;28;20277;-71
2023/02/18 00:16:04;;;;;;;1.20;1.03;;;;;;;15.09;55.43;98348.44;4996134;28;20959;-70
2023/02/18 00:18:30;;;;;;;1.43;1.00;;;;;;;15.11;55.01;98349.13;5000378;28;20204;-70
2023/02/18 00:20:55;;;;;;;1.70;1.10;;;;;;;14.96;55.11;98348.81;4980370;28;20527;-70
2023/02/18 00:23:21;;;;;;;1.97;1.20;;;;;;;15.01;55.36;98340.44;4968278;28;20199;-69
2023/02/18 00:25:46;;;;;;;1.30;1.20;;;;;;;14.97;55.40;98341.75;4996194;28;20225;-70
2023/02/18 00:28:12;;;;;;;1.40;1.20;;;;;;;14.73;55.75;98351.91;4984357;28;20562;-70
2023/02/18 00:30:41;;;;;;;1.60;1.20;;;;;;;14.84;55.74;98345.59;4985632;28;20176;-70
2023/02/18 00:33:07;;;;;;;1.27;1.07;;;;;;;14.87;55.54;98347.91;4995999;28;20181;-68
2023/02/18 00:35:32;;;;;;;1.23;1.13;;;;;;;14.96;55.32;98343.53;4986120;28;20426;-70
2023/02/18 00:37:58;;;;;;;1.13;0.93;;;;;;;14.84;55.55;98348.25;4982320;28;20193;-69
2023/02/18 00:40:23;;;;;;;1.40;1.30;;;;;;;14.90;55.17;98344.97;5007130;28;20684;-70
2023/02/18 00:42:49;;;;;;;1.20;1.10;;;;;;;14.98;55.36;98346.84;5011126;28;20185;-70
2023/02/18 00:45:14;;;;;;;1.30;1.00;;;;;;;14.82;55.48;98337.00;5003016;28;20223;-70
2023/02/18 00:47:40;;;;;;;1.87;1.20;;;;;;;14.55;56.06;98343.97;5006563;28;20975;-71
2023/02/18 00:50:06;;;;;;;1.50;0.97;;;;;;;14.82;55.62;98330.88;5009773;28;21001;-69
2023/02/18 00:52:32;;;;;;;1.40;1.07;;;;;;;14.78;55.74;98322.44;4999451;28;20719;-70
2023/02/18 00:54:57;;;;;;;1.20;1.10;;;;;;;14.83;55.54;98328.09;4998389;28;20423;-71
2023/02/18 00:57:23;;;;;;;1.30;1.20;;;;;;;14.80;55.56;98324.94;5006646;28;20293;-70
2023/02/18 00:59:48;;;;;;;1.40;1.20;;;;;;;14.72;55.76;98337.06;5005684;28;20199;-71
2023/02/18 01:02:13;;;;;;;1.43;1.30;;;;;;;14.88;55.40;98330.28;5000801;28;20182;-71
2023/02/18 01:04:39;;;;;;;2.07;1.37;;;;;;;14.83;55.30;98328.09;5002547;28;20267;-71
2023/02/18 01:07:04;;;;;;;1.20;1.00;;;;;;;14.95;55.21;98327.88;5005795;28;20307;-71
2023/02/18 01:09:30;;;;;;;2.00;1.00;;;;;;;14.81;55.21;98327.41;5006800;28;20200;-72
2023/02/18 01:11:55;;;;;;;1.33;1.23;;;;;;;14.88;55.47;98330.28;4967491;28;20599;-70
2023/02/18 01:14:21;;;;;;;1.57;1.20;;;;;;;14.92;55.11;98325.53;4971090;28;20220;-70
2023/02/18 01:16:46;;;;;;;2.70;1.30;;;;;;;14.72;55.56;98321.25;4962242;28;20185;-70
2023/02/18 01:19:11;;;;;;;1.60;1.50;;;;;;;14.84;55.34;98319.22;4987872;28;20200;-69
2023/02/18 01:21:37;;;;;;;1.30;1.10;;;;;;;14.84;55.21;98319.22;5006401;28;20267;-70
2023/02/18 01:24:03;;;;;;;2.30;1.00;;;;;;;14.83;55.29;98319.34;5009841;28;20176;-70
2023/02/18 01:26:28;;;;;;;1.43;1.10;;;;;;;14.73;55.43;98314.16;4998256;28;20205;-70
2023/02/18 01:28:53;;;;;;;3.80;1.27;;;;;;;14.83;55.16;98314.91;5008170;28;20753;-71
2023/02/18 01:31:19;;;;;;;1.30;1.20;;;;;;;14.70;55.48;98317.09;5004871;28;20206;-72
2023/02/18 01:33:44;;;;;;;5.83;1.30;;;;;;;14.79;55.18;98305.63;5004021;28;20173;-70
2023/02/18 01:36:10;;;;;;;1.70;1.40;;;;;;;14.74;55.19;98297.34;5004224;28;20186;-70
2023/02/18 01:38:36;;;;;;;1.70;1.20;;;;;;;14.72;55.33;98297.50;5002152;28;20275;-71
2023/02/18 01:41:01;;;;;;;1.50;1.40;;;;;;;14.67;55.35;98302.41;5007451;28;20430;-70
2023/02/18 01:43:27;;;;;;;1.83;1.23;;;;;;;14.87;54.84;98303.03;5003436;28;20188;-70
2023/02/18 01:46:11;;;;;;;1.70;1.60;;;;;;;14.74;54.97;98307.91;5004697;28;20612;-71
2023/02/18 01:48:54;;;;;;;3.63;1.27;;;;;;;14.85;54.53;98310.31;4988096;28;20204;-71
2023/02/18 01:51:42;;;;;;;1.50;1.20;;;;;;;14.89;54.62;98301.09;4984183;28;20448;-71
2023/02/18 01:54:09;;;;;;;2.33;1.57;;;;;;;14.86;54.44;98300.56;4997211;28;21148;-69
2023/02/18 01:56:38;;;;;;;2.63;1.53;;;;;;;14.92;54.27;98299.13;4986424;28;20403;-71
2023/02/18 01:59:08;;;;;;;1.57;1.17;;;;;;;14.86;54.28;98293.50;4979854;28;20455;-70
2023/02/18 02:01:33;;;;;;;1.23;1.13;;;;;;;14.72;54.70;98294.03;4977252;28;20419;-70
2023/02/18 02:03:59;;;;;;;2.00;1.53;;;;;;;14.46;55.32;98294.75;4985358;28;20452;-71
2023/02/18 02:06:25;;;;;;;1.70;1.47;;;;;;;14.73;54.80;98291.22;5002860;28;20189;-69
2023/02/18 02:08:53;;;;;;;2.83;1.10;;;;;;;14.80;54.26;98302.00;5005479;28;20232;-70
2023/02/18 02:11:31;;;;;;;3.40;1.80;;;;;;;14.70;54.57;98285.44;4984221;28;20189;-69
2023/02/18 02:14:23;;;;;;;2.40;1.60;;;;;;;14.84;54.43;98284.06;4988996;28;20997;-68
2023/02/18 02:17:18;;;;;;;1.30;1.20;;;;;;;14.95;53.93;98283.00;4960169;28;20439;-70
2023/02/18 02:20:11;;;;;;;1.67;1.57;;;;;;;14.97;53.99;98291.59;4957282;28;20472;-70
2023/02/18 02:23:13;;;;;;;1.47;1.37;;;;;;;14.95;53.68;98293.53;4984573;28;20911;-69
2023/02/18 02:25:45;;;;;;;1.60;1.20;;;;;;;15.01;53.54;98295.56;4973749;28;20410;-68
2023/02/18 02:28:26;;;;;;;2.03;1.50;;;;;;;15.03;53.48;98296.22;4985812;28;20472;-70
2023/02/18 02:30:54;;;;;;;2.33;1.60;;;;;;;14.94;53.60;98297.16;5004705;28;20427;-71
2023/02/18 02:33:58;;;;;;;1.60;1.40;;;;;;;14.96;53.60;98290.75;5007204;28;20421;-70
2023/02/18 02:36:47;;;;;;;1.67;1.57;;;;;;;14.98;53.54;98293.25;5001854;28;20426;-69
2023/02/18 02:39:19;;;;;;;1.50;1.40;;;;;;;15.02;53.26;98284.00;4984064;28;20443;-70
2023/02/18 02:42:33;;;;;;;1.90;1.57;;;;;;;15.00;53.35;98285.97;4984640;28;20602;-70
2023/02/18 02:45:09;;;;;;;3.13;1.57;;;;;;;14.90;53.61;98283.47;4986607;28;20440;-70
2023/02/18 02:47:54;;;;;;;2.00;1.80;;;;;;;14.79;53.86;98281.88;4988945;28;20490;-70
2023/02/18 02:50:27;;;;;;;1.60;1.50;;;;;;;14.85;53.76;98262.81;4989599;28;20807;-69
2023/02/18 02:52:57;;;;;;;2.80;1.50;;;;;;;14.84;53.64;98271.69;4987585;28;20426;-70
2023/02/18 02:55:22;;;;;;;1.60;1.40;;;;;;;14.88;53.43;98267.75;4978988;28;20507;-69
2023/02/18 02:57:51;;;;;;;1.50;1.40;;;;;;;14.90;53.56;98260.50;5005645;28;20952;-70
2023/02/18 03:00:20;;;;;;;3.23;1.70;;;;;;;14.93;53.57;98264.69;5001786;28;20184;-69
2023/02/18 03:02:45;;;;;;;1.50;1.40;;;;;;;14.85;53.54;98262.81;4993769;28;20454;-70
2023/02/18 03:05:59;;;;;;;1.60;1.50;;;;;;;14.79;54.00;98271.31;4997758;28;20459;-70
2023/02/18 03:08:24;;;;;;;1.50;1.40;;;;;;;14.85;53.96;98268.09;4960410;28;20248;-70
2023/02/18 03:11:00;;;;;;;1.43;1.33;;;;;;;14.85;53.72;98270.72;4998067;28;20419;-70
2023/02/18 03:14:15;;;;;;;1.50;1.40;;;;;;;14.68;54.44;98272.38;4989358;28;20180;-70
2023/02/18 03:16:43;;;;;;;1.77;1.33;;;;;;;14.77;54.02;98275.91;4968439;28;21215;-70
2023/02/18 03:19:32;;;;;;;1.97;1.40;;;;;;;14.83;54.04;98264.75;5004127;28;20448;-69
2023/02/18 03:21:59;;;;;;;1.30;1.07;;;;;;;14.78;54.04;98267.03;4986376;28;20513;-70
2023/02/18 03:24:39;;;;;;;1.50;1.33;;;;;;;14.86;53.69;98267.09;5004171;28;20413;-70
2023/02/18 03:27:10;;;;;;;1.50;1.27;;;;;;;14.82;53.80;98249.06;5000478;28;20463;-70
2023/02/18 03:29:36;;;;;;;1.40;1.27;;;;;;;14.83;53.70;98245.44;4977798;28;20452;-70
2023/02/18 03:32:04;;;;;;;1.77;1.13;;;;;;;14.76;53.94;98249.69;4973684;28;20950;-70
2023/02/18 03:34:40;;;;;;;1.73;1.20;;;;;;;14.76;54.08;98244.41;4983113;28;20303;-72
2023/02/18 03:37:07;;;;;;;1.73;1.50;;;;;;;14.72;54.11;98241.25;4985280;28;20501;-70
2023/02/18 03:39:35;;;;;;;1.20;1.00;;;;;;;14.74;54.24;98247.22;4978190;28;20501;-70
2023/02/18 03:42:00;;;;;;;2.00;1.47;;;;;;;14.69;53.96;98242.38;4983163;28;20432;-70
2023/02/18 03:44:26;;;;;;;1.30;1.20;;;;;;;14.65;54.15;98237.53;4976553;28;21446;-69
2023/02/18 03:46:52;;;;;;;1.20;1.10;;;;;;;14.62;54.04;98235.22;4997882;28;20287;-70
2023/02/18 03:49:17;;;;;;;1.30;1.20;;;;;;;14.57;54.16;98233.84;5005243;28;20219;-69
2023/02/18 03:51:43;;;;;;;1.50;1.30;;;;;;;14.47;54.60;98237.56;4999620;28;20860;-70
2023/02/18 03:54:09;;;;;;;1.70;1.40;;;;;;;14.47;54.54;98242.84;4999293;28;20558;-69
2023/02/18 03:56:35;;;;;;;2.60;1.30;;;;;;;14.56;54.39;98242.75;5002140;28;20307;-70
2023/02/18 03:59:01;;;;;;;1.30;1.20;;;;;;;14.57;54.50;98252.31;4986930;28;20454;-71
2023/02/18 04:01:26;;;;;;;1.67;1.57;;;;;;;14.53;54.61;98247.50;4999414;28;20425;-71
2023/02/18 04:03:54;;;;;;;1.93;1.10;;;;;;;14.46;54.67;98247.28;4992505;28;20193;-71
2023/02/18 04:06:22;;;;;;;1.40;1.30;;;;;;;14.54;54.53;98252.63;5002376;28;20200;-70
2023/02/18 04:08:47;;;;;;;1.60;1.27;;;;;;;14.46;54.70;98242.00;5001146;28;20444;-70
2023/02/18 04:11:13;;;;;;;1.93;1.57;;;;;;;14.49;54.65;98241.69;5005674;28;20427;-70
2023/02/18 04:13:38;;;;;;;1.40;1.30;;;;;;;14.54;54.79;98247.34;5001139;28;20275;-70
2023/02/18 04:16:04;;;;;;;1.13;1.00;;;;;;;14.59;54.38;98247.72;5000469;28;20195;-71
2023/02/18 04:18:29;;;;;;;1.90;1.30;;;;;;;14.64;54.08;98231.44;4998124;28;20211;-70
2023/02/18 04:20:55;;;;;;;3.60;1.57;;;;;;;14.50;54.71;98243.34;4998586;28;20189;-70
2023/02/18 04:23:20;;;;;;;1.50;1.10;;;;;;;14.52;54.46;98241.38;5005782;28;20199;-70
2023/02/18 04:25:46;;;;;;;1.20;1.10;;;;;;;14.53;54.16;98237.78;4994983;28;20272;-69
2023/02/18 04:28:14;;;;;;;1.30;1.20;;;;;;;14.41;54.78;98239.00;4994656;28;20219;-69
2023/02/18 04:30:40;;;;;;;2.07;1.30;;;;;;;14.42;54.64;98232.75;5003806;28;20191;-69
2023/02/18 04:33:05;;;;;;;2.37;1.20;;;;;;;14.38;54.85;98223.47;4994641;28;20437;-70
2023/02/18 04:35:31;;;;;;;1.77;1.40;;;;;;;14.32;54.83;98224.91;4979781;28;21192;-69
2023/02/18 04:37:56;;;;;;;2.40;1.30;;;;;;;14.41;54.65;98228.44;4992552;28;20200;-69
2023/02/18 04:40:24;;;;;;;1.83;1.40;;;;;;;14.25;54.90;98232.59;5005929;28;20212;-70
2023/02/18 04:42:49;;;;;;;1.40;1.30;;;;;;;14.23;54.99;98228.44;4997486;28;20637;-70
2023/02/18 04:45:15;;;;;;;1.73;1.30;;;;;;;14.33;54.68;98223.09;4981754;28;20439;-71
2023/02/18 04:47:40;;;;;;;3.33;1.83;;;;;;;14.35;54.96;98232.50;5004893;28;20200;-70
2023/02/18 04:50:06;;;;;;;2.40;1.57;;;;;;;14.37;54.76;98232.34;4998221;28;20247;-69
2023/02/18 04:52:32;;;;;;;1.50;1.40;;;;;;;14.34;54.57;98237.94;5007062;28;20184;-69
2023/02/18 04:54:57;;;;;;;2.03;1.57;;;;;;;14.32;54.72;98229.34;4987160;28;20420;-69
2023/02/18 04:57:23;;;;;;;1.73;1.30;;;;;;;14.17;55.01;98227.25;5005645;28;20193;-69
2023/02/18 04:59:48;;;;;;;2.17;1.43;;;;;;;14.11;55.22;98238.41;5002574;28;20189;-69
2023/02/18 05:02:13;;;;;;;1.50;1.40;;;;;;;14.20;55.25;98236.66;4990984;28;20285;-69
2023/02/18 05:04:39;;;;;;;1.50;1.30;;;;;;;14.18;54.69;98233.34;5005380;28;20202;-69
2023/02/18 05:07:04;;;;;;;2.20;1.60;;;;;;;14.24;54.96;98233.56;4992072;28;20237;-68
2023/02/18 05:09:30;;;;;;;1.53;1.30;;;;;;;14.22;54.79;98225.00;4994902;28;20249;-70
2023/02/18 05:11:55;;;;;;;1.60;1.37;;;;;;;14.23;54.71;98226.66;4997723;28;20841;-70
2023/02/18 05:14:21;;;;;;;2.33;1.60;;;;;;;14.11;55.19;98223.41;5005981;28;20663;-69
2023/02/18 05:16:46;;;;;;;1.57;1.47;;;;;;;14.12;55.28;98238.25;5001486;28;20712;-69
2023/02/18 05:19:13;;;;;;;1.63;1.53;;;;;;;14.16;55.35;98246.66;4972163;28;20311;-69
2023/02/18 05:21:39;;;;;;;3.07;1.40;;;;;;;14.11;55.26;98238.41;5005152;28;20264;-70
2023/02/18 05:24:05;;;;;;;1.73;1.50;;;;;;;14.09;55.24;98240.34;4998379;28;20511;-71
2023/02/18 05:26:30;;;;;;;1.30;1.20;;;;;;;14.14;55.30;98240.72;5003051;28;20223;-70
2023/02/18 05:28:56;;;;;;;1.27;1.17;;;;;;;14.09;54.91;98229.81;5003105;28;20212;-69
2023/02/18 05:31:21;;;;;;;1.87;1.60;;;;;;;14.01;55.31;98233.19;5009381;28;20713;-70
2023/02/18 05:33:47;;;;;;;1.50;1.33;;;;;;;13.97;55.78;98237.94;5005392;28;20263;-69
2023/02/18 05:36:12;;;;;;;2.53;1.60;;;;;;;13.97;55.66;98231.81;4996300;28;20185;-68
2023/02/18 05:38:38;;;;;;;1.63;1.20;;;;;;;14.02;55.64;98228.72;5002480;28;20235;-68
2023/02/18 05:41:03;;;;;;;1.60;1.50;;;;;;;13.88;55.89;98227.44;5008034;28;20290;-69
2023/02/18 05:43:29;;;;;;;4.30;1.40;;;;;;;14.00;55.57;98233.31;4999370;28;20184;-69
2023/02/18 05:45:54;;;;;;;3.10;1.50;;;;;;;13.97;55.70;98232.66;4992841;28;20194;-69
2023/02/18 05:48:20;;;;;;;1.50;1.40;;;;;;;14.01;55.79;98229.72;5004006;28;20242;-69
2023/02/18 05:50:45;;;;;;;1.53;1.40;;;;;;;13.90;56.07;98226.31;4986932;28;20186;-70
2023/02/18 05:53:10;;;;;;;2.40;1.40;;;;;;;13.79;56.65;98216.84;5000406;28;20212;-69
2023/02/18 05:55:37;;;;;;;1.73;1.50;;;;;;;13.91;56.51;98214.81;4997678;28;20212;-69
2023/02/18 05:58:04;;;;;;;1.30;1.20;;;;;;;14.01;56.12;98219.16;5007570;28;20196;-68
2023/02/18 06:00:30;;;;;;;1.80;1.23;;;;;;;13.95;56.38;98212.69;5000526;28;20889;-70
2023/02/18 06:02:56;;;;;;;1.83;1.47;;;;;;;13.96;56.43;98215.19;4997708;28;20836;-70
2023/02/18 06:05:22;;;;;;;1.67;1.57;;;;;;;13.86;56.57;98217.03;5004334;28;20420;-71
2023/02/18 06:07:47;;;;;;;2.03;1.80;;;;;;;14.01;56.56;98211.25;4999888;28;20489;-70
2023/02/18 06:10:13;;;;;;;2.90;1.63;;;;;;;13.92;56.96;98213.81;5004360;28;20197;-69
2023/02/18 06:12:38;;;;;;;1.73;1.40;;;;;;;13.88;57.03;98209.81;4998237;28;20550;-71
2023/02/18 06:15:04;;;;;;;1.50;1.40;;;;;;;13.80;57.16;98215.00;5007688;28;20200;-71
2023/02/18 06:17:30;;;;;;;1.87;1.57;;;;;;;13.72;57.34;98220.19;5004093;28;20761;-70
2023/02/18 06:19:55;;;;;;;1.60;1.50;;;;;;;13.62;57.57;98221.06;4995109;28;20441;-70
2023/02/18 06:22:21;;;;;;;2.40;1.40;;;;;;;13.84;57.22;98221.66;5004398;28;20632;-71
2023/02/18 06:24:46;;;;;;;2.70;1.63;;;;;;;13.96;56.99;98220.47;5003450;28;20184;-70
2023/02/18 06:27:12;;;;;;;3.83;1.50;;;;;;;13.67;58.07;98218.81;4990357;28;20236;-70
2023/02/18 06:29:37;;;;;;;3.40;1.80;;;;;;;13.93;57.72;98223.38;5002520;28;20671;-70
2023/02/18 06:32:03;;;;;;;1.47;1.37;;;;;;;13.95;57.02;98217.97;5001203;28;20203;-72
2023/02/18 06:34:28;;;;;;;3.10;2.03;;;;;;;13.86;57.57;98218.84;4998530;28;20177;-71
2023/02/18 06:36:54;;;;;;;1.77;1.67;;;;;;;14.00;57.16;98215.72;4985491;28;20194;-69
2023/02/18 06:39:19;;;;;;;1.53;1.43;;;;;;;14.16;56.87;98215.03;4999330;28;20204;-70
2023/02/18 06:41:45;;;;;;;1.70;1.60;;;;;;;14.12;56.65;98214.50;5005504;28;20587;-70
2023/02/18 06:44:10;;;;;;;3.57;2.63;;;;;;;14.17;56.60;98216.69;4990934;28;21858;-73
2023/02/18 06:46:36;;;;;;;5.90;4.03;;;;;;;14.13;56.52;98216.19;5000316;28;20226;-74
2023/02/18 06:49:01;;;;;;;2.30;2.10;;;;;;;14.10;56.59;98219.09;5005589;28;20213;-71
2023/02/18 06:51:27;;;;;;;2.10;1.90;;;;;;;14.08;56.79;98223.69;5001509;28;20201;-71
2023/02/18 06:53:52;;;;;;;3.23;2.70;;;;;;;14.18;56.52;98218.34;5005841;28;20187;-70
2023/02/18 06:56:18;;;;;;;2.80;2.00;;;;;;;14.08;56.65;98221.06;4999921;28;20267;-70
2023/02/18 06:58:43;;;;;;;1.97;1.57;;;;;;;14.13;56.55;98229.34;4999140;28;20235;-70
2023/02/18 07:01:09;;;;;;;2.47;2.20;;;;;;;14.21;56.41;98228.63;4994518;28;20185;-70
2023/02/18 07:03:34;;;;;;;2.53;2.00;;;;;;;14.08;56.63;98230.78;4998821;28;20603;-70
2023/02/18 07:06:00;;;;;;;2.10;1.90;;;;;;;14.09;56.77;98229.81;5001499;28;20334;-73
2023/02/18 07:08:25;;;;;;;2.03;1.60;;;;;;;14.15;56.61;98228.38;5001299;28;20209;-71
2023/02/18 07:10:50;;;;;;;1.90;1.77;;;;;;;14.07;56.75;98234.41;4992071;28;20259;-71
2023/02/18 07:13:16;;;;;;;2.90;2.07;;;;;;;14.14;56.70;98238.09;4994438;28;20189;-72
2023/02/18 07:15:42;;;;;;;2.10;2.00;;;;;;;14.20;56.50;98231.38;4999014;28;20195;-71
2023/02/18 07:18:07;;;;;;;3.60;1.77;;;;;;;14.35;56.20;98232.50;4995411;28;20224;-68
2023/02/18 07:20:33;;;;;;;2.20;2.00;;;;;;;14.19;56.27;98233.19;4993339;28;20203;-71
2023/02/18 07:22:58;;;;;;;2.40;2.17;;;;;;;14.07;56.68;98227.31;4999203;28;20201;-71
2023/02/18 07:25:24;;;;;;;1.97;1.87;;;;;;;14.03;57.00;98225.97;4993610;28;20177;-70
2023/02/18 07:27:50;;;;;;;1.97;1.77;;;;;;;14.21;56.50;98227.75;5002308;28;20269;-70
2023/02/18 07:30:17;;;;;;;1.60;1.50;;;;;;;14.33;56.49;98226.56;4994322;28;20181;-69
2023/02/18 07:32:42;;;;;;;2.60;1.90;;;;;;;14.38;56.03;98216.41;5000359;28;21188;-70
2023/02/18 07:35:10;;;;;;;2.20;1.73;;;;;;;14.43;56.32;98216.75;4996778;28;20511;-68
2023/02/18 07:37:35;;;;;;;1.60;1.50;;;;;;;14.49;56.17;98220.59;4967348;28;20290;-71
2023/02/18 07:40:01;;;;;;;2.43;1.70;;;;;;;14.53;56.04;98211.41;5004983;28;21266;-71
2023/02/18 07:42:26;;;;;;;3.40;1.80;;;;;;;14.51;56.08;98213.34;5009279;28;20188;-70
2023/02/18 07:44:52;;;;;;;2.10;1.90;;;;;;;14.43;56.36;98208.84;4989081;28;20296;-70
2023/02/18 07:47:20;;;;;;;2.50;1.90;;;;;;;14.52;56.32;98208.94;5004622;28;20208;-71
2023/02/18 07:49:46;;;;;;;2.17;1.80;;;;;;;14.55;56.29;98209.44;5000293;28;20209;-70
2023/02/18 07:52:12;;;;;;;2.00;1.80;;;;;;;14.59;56.09;98208.16;5004818;28;20582;-70
2023/02/18 07:54:38;;;;;;;3.60;2.13;;;;;;;14.52;56.24;98203.66;5003313;28;20172;-71
2023/02/18 07:57:03;;;;;;;2.30;2.10;;;;;;;14.63;55.97;98202.56;5004889;28;20814;-71
2023/02/18 07:59:28;;;;;;;2.00;1.90;;;;;;;14.70;55.91;98196.53;5001324;28;20196;-70
2023/02/18 08:01:54;;;;;;;2.00;1.80;;;;;;;14.72;56.01;98202.50;4991215;28;20177;-71
2023/02/18 08:04:19;;;;;;;1.60;1.50;;;;;;;14.80;55.72;98201.72;5005016;28;20184;-71
2023/02/18 08:06:46;;;;;;;2.43;2.00;;;;;;;14.87;55.75;98202.75;4982314;28;20201;-71
2023/02/18 08:09:12;;;;;;;2.60;1.93;;;;;;;14.79;55.50;98202.72;5004963;28;20588;-70
2023/02/18 08:11:38;;;;;;;1.80;1.70;;;;;;;14.88;55.35;98198.31;5004576;28;20427;-71
2023/02/18 08:14:04;;;;;;;1.70;1.60;;;;;;;14.83;55.39;98200.59;5002721;28;20427;-71
2023/02/18 08:16:29;;;;;;;2.93;1.97;;;;;;;14.85;54.99;98199.47;5004649;28;20185;-70
2023/02/18 08:18:55;;;;;;;2.20;2.00;;;;;;;14.93;54.64;98201.34;4997628;28;20707;-71
2023/02/18 08:21:22;;;;;;;2.33;1.90;;;;;;;14.90;54.49;98206.91;4996016;28;20184;-71
2023/02/18 08:23:47;;;;;;;2.27;2.07;;;;;;;14.88;54.23;98206.25;5000413;28;20188;-70
2023/02/18 08:26:13;;;;;;;3.03;2.37;;;;;;;14.95;54.11;98219.63;5005149;28;20434;-71
2023/02/18 08:28:39;;;;;;;2.73;2.37;;;;;;;14.97;53.82;98215.03;5002915;28;20642;-69
2023/02/18 08:31:05;;;;;;;2.40;1.80;;;;;;;14.83;53.88;98208.50;4987400;28;20188;-70
2023/02/18 08:33:30;;;;;;;2.53;1.80;;;;;;;15.04;53.46;98200.22;5005547;28;20188;-70
2023/02/18 08:35:56;;;;;;;2.13;1.87;;;;;;;15.12;53.35;98202.91;4979572;28;20184;-70
2023/02/18 08:38:22;;;;;;;3.73;1.90;;;;;;;15.02;53.51;98199.53;4998469;28;20396;-70
2023/02/18 08:40:48;;;;;;;1.83;1.60;;;;;;;15.09;53.33;98190.03;5007761;28;20616;-70
2023/02/18 08:43:15;;;;;;;1.93;1.83;;;;;;;15.12;53.10;98188.88;5001152;28;20530;-70
2023/02/18 08:45:41;;;;;;;2.40;1.50;;;;;;;15.19;52.94;98190.72;4997826;28;20185;-71
2023/02/18 08:48:07;;;;;;;2.70;1.40;;;;;;;15.29;52.77;98189.78;5001482;28;21198;-71
2023/02/18 08:50:33;;;;;;;1.70;1.60;;;;;;;15.24;52.73;98189.44;4986105;28;20419;-71
2023/02/18 08:53:02;;;;;;;1.97;1.77;;;;;;;15.11;53.12;98193.34;5005091;28;20486;-71
2023/02/18 08:55:30;;;;;;;1.43;1.33;;;;;;;15.30;52.41;98200.22;5002041;28;20483;-70
2023/02/18 08:57:55;;;;;;;2.27;1.80;;;;;;;15.36;52.27;98191.63;5000407;28;20472;-72
2023/02/18 09:00:21;;;;;;;2.20;1.53;;;;;;;15.29;52.47;98195.06;5003666;28;20546;-70
2023/02/18 09:02:46;;;;;;;2.80;1.60;;;;;;;15.37;52.12;98184.56;4998648;28;20241;-71
2023/02/18 09:05:12;;;;;;;3.93;1.37;;;;;;;15.44;52.08;98179.44;5005107;28;20268;-70
2023/02/18 09:07:38;;;;;;;1.40;1.30;;;;;;;15.47;51.87;98172.03;5000979;28;20204;-71
2023/02/18 09:10:04;;;;;;;1.60;1.50;;;;;;;15.48;51.72;98173.69;4987844;28;20431;-71
2023/02/18 09:12:29;;;;;;;2.03;1.47;;;;;;;15.48;51.68;98178.13;5011025;28;20551;-70
2023/02/18 09:14:55;;;;;;;3.13;1.40;;;;;;;15.45;51.85;98173.16;5007386;28;20434;-70
2023/02/18 09:17:20;;;;;;;2.07;1.70;;;;;;;15.62;51.46;98172.25;5004244;28;20196;-70
2023/02/18 09:19:46;;;;;;;2.10;1.50;;;;;;;15.70;51.27;98174.06;5004149;28;20215;-71
2023/02/18 09:22:12;;;;;;;1.47;1.37;;;;;;;15.77;51.13;98176.91;5005205;28;20675;-70
2023/02/18 09:24:38;;;;;;;1.37;1.27;;;;;;;15.76;51.12;98172.59;5005316;28;20211;-72
2023/02/18 09:27:04;;;;;;;1.73;1.63;;;;;;;15.77;50.65;98164.50;4999034;28;20292;-71
2023/02/18 09:29:29;;;;;;;1.97;1.60;;;;;;;15.65;50.57;98158.72;5005204;28;20522;-69
2023/02/18 09:31:59;;;;;;;1.47;1.30;;;;;;;15.64;50.78;98156.22;5010804;28;20310;-71
2023/02/18 09:34:24;;;;;;;1.87;1.50;;;;;;;15.76;50.91;98149.63;5005559;28;20251;-70
2023/02/18 09:36:50;;;;;;;1.63;1.33;;;;;;;15.84;50.72;98153.28;5005004;28;20503;-71
2023/02/18 09:39:16;;;;;;;2.33;1.80;;;;;;;15.68;50.61;98149.63;5002865;28;20299;-70
2023/02/18 09:41:47;;;;;;;2.70;1.27;;;;;;;15.92;50.29;98151.53;5009630;28;20176;-72
2023/02/18 09:44:33;;;;;;;2.00;1.60;;;;;;;15.82;50.46;98146.34;4985381;28;20443;-73
2023/02/18 09:47:04;;;;;;;1.73;1.20;;;;;;;16.01;50.10;98148.88;4982919;28;20463;-72
2023/02/18 09:49:38;;;;;;;1.60;1.50;;;;;;;16.00;50.10;98142.78;5005133;28;20436;-71
2023/02/18 09:52:11;;;;;;;2.93;1.43;;;;;;;15.93;50.25;98149.69;4983882;28;20443;-71
2023/02/18 09:54:36;;;;;;;1.33;1.10;;;;;;;16.08;50.01;98153.34;4988727;28;20436;-71
2023/02/18 09:57:02;;;;;;;2.53;1.40;;;;;;;16.15;49.83;98142.09;4999796;28;20499;-71
2023/02/18 09:59:29;;;;;;;2.00;1.70;;;;;;;16.16;49.93;98151.69;4990892;28;20200;-72
2023/02/18 10:01:55;;;;;;;2.30;1.47;;;;;;;16.17;49.80;98156.00;4993904;28;20455;-72
2023/02/18 10:04:26;;;;;;;1.47;1.37;;;;;;;16.15;49.80;98160.63;5007452;28;20923;-71
2023/02/18 10:06:52;;;;;;;1.37;1.27;;;;;;;16.26;49.52;98155.84;4976668;28;20551;-71
2023/02/18 10:09:27;;;;;;;2.90;1.53;;;;;;;16.19;49.57;98154.81;4990372;28;20558;-71
2023/02/18 10:12:17;;;;;;;2.23;1.57;;;;;;;16.27;49.56;98159.28;4987580;28;20419;-71
2023/02/18 10:14:44;;;;;;;1.80;1.40;;;;;;;16.26;49.42;98155.00;4990245;28;20431;-70
2023/02/18 10:17:12;;;;;;;2.07;1.20;;;;;;;16.25;49.40;98150.72;4990629;28;20433;-70
2023/02/18 10:19:39;;;;;;;3.07;1.47;;;;;;;16.15;49.42;98147.38;4985567;28;20950;-70
2023/02/18 10:22:07;;;;;;;3.03;1.57;;;;;;;16.08;49.67;98148.06;5004183;28;20452;-71
2023/02/18 10:24:34;;;;;;;1.60;1.20;;;;;;;16.23;49.27;98152.69;4978588;28;20989;-70
2023/02/18 10:27:00;;;;;;;1.80;1.37;;;;;;;16.29;49.12;98146.72;4999264;28;20538;-71
2023/02/18 10:29:26;;;;;;;7.20;2.07;;;;;;;16.29;49.17;98152.03;4985821;28;20452;-69
2023/02/18 10:32:30;;;;;;;1.50;1.27;;;;;;;16.25;49.07;98163.94;5009140;28;20431;-70
2023/02/18 10:35:00;;;;;;;2.70;1.20;;;;;;;16.20;48.95;98161.78;4916063;29;20823;-71
2023/02/18 10:37:38;;;;;;;3.10;1.20;;;;;;;16.36;48.86;98173.34;4969814;28;20433;-70
2023/02/18 10:40:12;;;;;;;1.87;1.40;;;;;;;16.31;48.57;98162.47;5006228;28;20419;-71
2023/02/18 10:43:19;;;;;;;1.83;1.13;;;;;;;16.40;48.68;98158.81;4997649;28;20433;-71
2023/02/18 10:45:52;;;;;;;1.73;1.30;;;;;;;16.44;48.35;98152.19;4979228;28;20487;-71
2023/02/18 10:48:35;;;;;;;3.20;1.07;;;;;;;16.46;48.46;98152.03;4983934;28;20468;-70
2023/02/18 10:51:10;;;;;;;1.40;1.20;;;;;;;16.53;48.06;98145.06;5002788;28;20428;-70
2023/02/18 10:53:38;;;;;;;2.00;1.20;;;;;;;16.59;47.81;98144.41;4991872;28;20954;-71
2023/02/18 10:56:05;;;;;;;1.53;1.10;;;;;;;16.60;47.98;98138.13;4980272;28;20511;-71
2023/02/18 10:58:46;;;;;;;1.37;1.13;;;;;;;16.45;48.19;98129.19;4999914;28;20439;-71
2023/02/18 11:01:18;;;;;;;3.33;1.43;;;;;;;16.61;47.69;98131.00;4997507;28;20903;-71
2023/02/18 11:03:44;;;;;;;1.40;1.30;;;;;;;16.63;48.43;98144.88;4983866;28;20419;-72
2023/02/18 11:06:39;;;;;;;1.87;1.30;;;;;;;16.79;47.55;98128.13;4999026;28;20424;-70
2023/02/18 11:09:05;;;;;;;3.20;1.40;;;;;;;16.91;47.14;98125.97;4966681;28;20465;-70
2023/02/18 11:11:33;;;;;;;1.73;1.23;;;;;;;16.99;47.05;98126.81;4987600;28;20506;-70
2023/02/18 11:14:01;;;;;;;3.63;1.30;;;;;;;16.84;46.99;98125.81;4989705;28;20508;-71
2023/02/18 11:16:41;;;;;;;1.20;1.10;;;;;;;16.94;46.60;98112.41;4994842;28;21030;-70
2023/02/18 11:19:38;;;;;;;2.00;1.27;;;;;;;16.81;46.24;98111.09;4995426;28;20440;-69
2023/02/18 11:22:21;;;;;;;1.77;1.17;;;;;;;16.92;46.26;98099.31;4998502;28;20436;-71
2023/02/18 11:24:49;;;;;;;1.10;1.00;;;;;;;17.02;45.92;98094.66;4973698;28;20458;-71
2023/02/18 11:27:40;;;;;;;3.70;1.33;;;;;;;16.98;46.15;98103.97;4998429;28;20491;-72
2023/02/18 11:30:17;;;;;;;1.77;1.20;;;;;;;17.01;45.81;98093.00;5000765;28;20427;-72
2023/02/18 11:32:42;;;;;;;1.40;1.00;;;;;;;16.99;45.60;98096.84;5001053;28;20423;-71
2023/02/18 11:35:16;;;;;;;1.73;1.17;;;;;;;16.99;45.49;98092.38;4987777;28;20789;-71
2023/02/18 11:37:42;;;;;;;1.17;1.07;;;;;;;17.07;45.39;98090.69;4981389;28;20177;-72
2023/02/18 11:40:20;;;;;;;4.10;1.20;;;;;;;17.11;45.53;98089.34;5006426;28;20799;-71
2023/02/18 11:42:46;;;;;;;1.47;1.00;;;;;;;17.05;45.15;98101.47;5005091;28;20206;-73